Dobrodošli na spletni strani vremenske postaje Senovo. Vse informacije so informativnega značaja, saj vremenska postaja ni del državne mreže meteoroloških postaj. AKTUALNIH OBVESTIL NI.


Posebna pozornost v zvezi z vremenskimi dogajanji ni potrebna.    Posebna pozornost v zvezi z vremenskimi dogajanji ni potrebna.

Pogled proti Armezu več informacij Pogled proti Armezu


Bohor več informacij Bohor


Radar strel več informacij blitzortung!


Radar padavin več informacij rain snow radar


Obiščite še:

Template documentation
and downloads

And another site



Weather Underground, zgodovina - Tekstovno

Dnevni povzetek za December 9, 2017 Enote:  Obe    Angleško   Metrično
« Predhodni Dan
Naslednji Dan »
Dnevni Tedenski Mesečni Letni Po meri
  Višja: Nižja: Povprečje:
Temperatura: TemperatureC °F /  -17.8 °C -6.2 °F /  -21.2 °C -0.4 °F /  -18 °C
Točka rosišča: DewpointC °F /  -17.8 °C -7.5 °F /  -21.9 °C -1.6 °F /  -18.7 °C
Vlažnost: Humidity % 0 % 91 %
Hitrost vetra: WindSpeedKMH mph /  0 km/h - 1.6 mph /  2.6 km/h
Sunki vetra: WindSpeedGustKMH mph /  0 km/h - -
Veter:- - SSW
Zračni tlak: PressurehPa in /  0 hPa 0.0 in /  0 hPa -
Padavine: 10.4 in /  264.16 mm    
Historical Graphs
 
 
Tabelarni podarki za December 9, 2017
Čas Temperatura Točka rosišča Zračni tlak Veter Hitrost vetra Sunki vetra Vlažnost Intenziteta padavin (urna)
TemperatureC °F /  -17.8 °C DewpointC °F /  -17.8 °C PressurehPa in /  0 hPa Calm     Humidity % HourlyPrecipMM in /  0 mm
00:02 2.0 °F /  -16.7 °C 0.2 °F /  -17.7 °C 1008.0 in /  34130.9 hPa ESE 4.8 mph /  7.7 km/h 11.6 mph /  18.7 km/h 88 % 3.8 in /  96.52 mm
00:32 1.6 °F /  -16.9 °C 0.0 °F /  -17.8 °C 1007.0 in /  34097 hPa SE 7.1 mph /  11.4 km/h 17.2 mph /  27.7 km/h 89 % 3.8 in /  96.52 mm
00:37 1.5 °F /  -16.9 °C -0.1 °F /  -17.8 °C 1007.0 in /  34097 hPa SE 6.1 mph /  9.8 km/h 14.0 mph /  22.5 km/h 89 % 3.8 in /  96.52 mm
00:47 1.3 °F /  -17.1 °C -0.3 °F /  -17.9 °C 1007.0 in /  34097 hPa SE 5.8 mph /  9.3 km/h 16.3 mph /  26.2 km/h 89 % 3.3 in /  83.82 mm
00:52 1.2 °F /  -17.1 °C -0.4 °F /  -18 °C 1007.0 in /  34097 hPa SSE 5.5 mph /  8.9 km/h 16.3 mph /  26.2 km/h 89 % 3.3 in /  83.82 mm
00:57 1.1 °F /  -17.2 °C -0.5 °F /  -18.1 °C 1008.0 in /  34130.9 hPa SE 5.5 mph /  8.9 km/h 10.5 mph /  16.9 km/h 89 % 3.0 in /  76.2 mm
01:02 1.1 °F /  -17.2 °C -0.5 °F /  -18.1 °C 1008.0 in /  34130.9 hPa SSE 4.5 mph /  7.2 km/h 11.9 mph /  19.2 km/h 89 % 3.0 in /  76.2 mm
01:07 1.0 °F /  -17.2 °C -0.6 °F /  -18.1 °C 1008.0 in /  34130.9 hPa South 3.1 mph /  5 km/h 11.9 mph /  19.2 km/h 89 % 2.5 in /  63.5 mm
01:22 0.9 °F /  -17.3 °C -0.7 °F /  -18.2 °C 1008.0 in /  34130.9 hPa East 5.5 mph /  8.9 km/h 12.2 mph /  19.6 km/h 89 % 1.3 in /  33.02 mm
01:32 0.9 °F /  -17.3 °C -0.7 °F /  -18.2 °C 1008.0 in /  34130.9 hPa East 4.2 mph /  6.8 km/h 7.9 mph /  12.7 km/h 89 % 0.8 in /  20.32 mm
01:37 0.9 °F /  -17.3 °C -0.6 °F /  -18.1 °C 1008.0 in /  34130.9 hPa East 4.7 mph /  7.6 km/h 8.7 mph /  14 km/h 90 % 0.5 in /  12.7 mm
01:48 0.9 °F /  -17.3 °C -0.6 °F /  -18.1 °C 1008.0 in /  34130.9 hPa East 4.3 mph /  6.9 km/h 7.9 mph /  12.7 km/h 90 % 0.3 in /  7.62 mm
01:53 0.9 °F /  -17.3 °C -0.6 °F /  -18.1 °C 1008.0 in /  34130.9 hPa East 4.8 mph /  7.7 km/h 9.3 mph /  15 km/h 90 % 0.3 in /  7.62 mm
01:58 0.9 °F /  -17.3 °C -0.6 °F /  -18.1 °C 1008.0 in /  34130.9 hPa East 4.8 mph /  7.7 km/h 16.9 mph /  27.2 km/h 90 % 0.3 in /  7.62 mm
02:08 0.9 °F /  -17.3 °C -0.6 °F /  -18.1 °C 1008.0 in /  34130.9 hPa East 7.2 mph /  11.6 km/h 15.4 mph /  24.8 km/h 90 % 1.0 in /  25.4 mm
02:13 0.9 °F /  -17.3 °C -0.6 °F /  -18.1 °C 1008.0 in /  34130.9 hPa East 7.9 mph /  12.7 km/h 15.4 mph /  24.8 km/h 90 % 1.0 in /  25.4 mm
02:18 0.9 °F /  -17.3 °C -0.6 °F /  -18.1 °C 1008.0 in /  34130.9 hPa East 7.1 mph /  11.4 km/h 14.0 mph /  22.5 km/h 90 % 1.3 in /  33.02 mm
02:23 0.9 °F /  -17.3 °C -0.6 °F /  -18.1 °C 1008.0 in /  34130.9 hPa East 4.8 mph /  7.7 km/h 9.0 mph /  14.5 km/h 90 % 1.5 in /  38.1 mm
02:29 0.9 °F /  -17.3 °C -0.4 °F /  -18 °C 1008.0 in /  34130.9 hPa East 3.7 mph /  6 km/h 6.9 mph /  11.1 km/h 91 % 1.8 in /  45.72 mm
02:34 1.0 °F /  -17.2 °C -0.4 °F /  -18 °C 1008.0 in /  34130.9 hPa East 3.1 mph /  5 km/h 6.9 mph /  11.1 km/h 90 % 1.8 in /  45.72 mm
02:39 1.0 °F /  -17.2 °C -0.3 °F /  -17.9 °C 1008.0 in /  34130.9 hPa East 5.3 mph /  8.5 km/h 16.9 mph /  27.2 km/h 91 % 2.3 in /  58.42 mm
02:49 1.1 °F /  -17.2 °C -0.2 °F /  -17.9 °C 1007.0 in /  34097 hPa East 7.4 mph /  11.9 km/h 16.3 mph /  26.2 km/h 91 % 2.5 in /  63.5 mm
02:54 1.0 °F /  -17.2 °C -0.3 °F /  -17.9 °C 1007.0 in /  34097 hPa East 4.8 mph /  7.7 km/h 10.1 mph /  16.3 km/h 91 % 2.5 in /  63.5 mm
02:59 1.0 °F /  -17.2 °C -0.3 °F /  -17.9 °C 1008.0 in /  34130.9 hPa East 4.7 mph /  7.6 km/h 20.9 mph /  33.6 km/h 91 % 2.3 in /  58.42 mm
03:09 1.0 °F /  -17.2 °C -0.3 °F /  -17.9 °C 1008.0 in /  34130.9 hPa East 6.9 mph /  11.1 km/h 17.2 mph /  27.7 km/h 91 % 2.0 in /  50.8 mm
03:14 1.0 °F /  -17.2 °C -0.3 °F /  -17.9 °C 1008.0 in /  34130.9 hPa East 6.9 mph /  11.1 km/h 17.2 mph /  27.7 km/h 91 % 2.0 in /  50.8 mm
03:15 1.0 °F /  -17.2 °C -0.3 °F /  -17.9 °C 1008.0 in /  34130.9 hPa East 6.8 mph /  10.9 km/h 12.6 mph /  20.3 km/h 91 % 2.0 in /  50.8 mm
03:21 1.0 °F /  -17.2 °C -0.3 °F /  -17.9 °C 1008.0 in /  34130.9 hPa East 6.1 mph /  9.8 km/h 12.6 mph /  20.3 km/h 91 % 1.8 in /  45.72 mm
03:26 1.0 °F /  -17.2 °C -0.3 °F /  -17.9 °C 1007.0 in /  34097 hPa East 6.1 mph /  9.8 km/h 14.0 mph /  22.5 km/h 91 % 2.0 in /  50.8 mm
03:30 1.0 °F /  -17.2 °C -0.3 °F /  -17.9 °C 1007.0 in /  34097 hPa East 6.4 mph /  10.3 km/h 14.0 mph /  22.5 km/h 91 % 1.8 in /  45.72 mm
03:35 1.0 °F /  -17.2 °C -0.3 °F /  -17.9 °C 1007.0 in /  34097 hPa East 5.5 mph /  8.9 km/h 10.8 mph /  17.4 km/h 91 % 1.8 in /  45.72 mm
03:41 1.0 °F /  -17.2 °C -0.3 °F /  -17.9 °C 1008.0 in /  34130.9 hPa East 4.8 mph /  7.7 km/h 9.7 mph /  15.6 km/h 91 % 1.5 in /  38.1 mm
03:46 1.0 °F /  -17.2 °C -0.3 °F /  -17.9 °C 1008.0 in /  34130.9 hPa East 5.0 mph /  8 km/h 9.7 mph /  15.6 km/h 91 % 1.3 in /  33.02 mm
03:51 1.0 °F /  -17.2 °C -0.3 °F /  -17.9 °C 1008.0 in /  34130.9 hPa East 4.8 mph /  7.7 km/h 9.3 mph /  15 km/h 91 % 1.3 in /  33.02 mm
03:56 0.9 °F /  -17.3 °C -0.3 °F /  -17.9 °C 1007.0 in /  34097 hPa East 5.1 mph /  8.2 km/h 8.7 mph /  14 km/h 92 % 1.0 in /  25.4 mm
04:01 0.9 °F /  -17.3 °C -0.3 °F /  -17.9 °C 1007.0 in /  34097 hPa East 5.1 mph /  8.2 km/h 8.7 mph /  14 km/h 92 % 1.0 in /  25.4 mm
04:06 0.9 °F /  -17.3 °C -0.3 °F /  -17.9 °C 1007.0 in /  34097 hPa East 4.0 mph /  6.4 km/h 7.9 mph /  12.7 km/h 92 % 1.0 in /  25.4 mm
04:11 0.8 °F /  -17.3 °C -0.3 °F /  -17.9 °C 1007.0 in /  34097 hPa East 3.1 mph /  5 km/h 7.9 mph /  12.7 km/h 92 % 1.0 in /  25.4 mm
04:16 0.8 °F /  -17.3 °C -0.3 °F /  -17.9 °C 1007.0 in /  34097 hPa East 1.1 mph /  1.8 km/h 5.8 mph /  9.3 km/h 92 % 0.8 in /  20.32 mm
04:20 0.7 °F /  -17.4 °C -0.4 °F /  -18 °C 1007.0 in /  34097 hPa Calm     92 % 0.8 in /  20.32 mm
04:25 0.7 °F /  -17.4 °C -0.4 °F /  -18 °C 1007.0 in /  34097 hPa East 0.5 mph /  0.8 km/h 4.7 mph /  7.6 km/h 92 % 0.8 in /  20.32 mm
04:26 0.7 °F /  -17.4 °C -0.4 °F /  -18 °C 1006.0 in /  34063.2 hPa East 0.6 mph /  1 km/h 4.7 mph /  7.6 km/h 92 % 0.8 in /  20.32 mm
04:28 0.7 °F /  -17.4 °C -0.4 °F /  -18 °C 1006.0 in /  34063.2 hPa East 0.6 mph /  1 km/h 4.7 mph /  7.6 km/h 92 % 0.8 in /  20.32 mm
04:30 0.7 °F /  -17.4 °C -0.4 °F /  -18 °C 1006.0 in /  34063.2 hPa East 0.6 mph /  1 km/h 4.7 mph /  7.6 km/h 92 % 0.8 in /  20.32 mm
04:35 0.7 °F /  -17.4 °C -0.4 °F /  -18 °C 1006.0 in /  34063.2 hPa Calm     92 % 0.5 in /  12.7 mm
04:40 0.7 °F /  -17.4 °C -0.4 °F /  -18 °C 1006.0 in /  34063.2 hPa Calm     92 % 0.5 in /  12.7 mm
04:45 0.7 °F /  -17.4 °C -0.4 °F /  -18 °C 1007.0 in /  34097 hPa Calm     92 % 0.5 in /  12.7 mm
04:50 0.6 °F /  -17.4 °C -0.6 °F /  -18.1 °C 1007.0 in /  34097 hPa Calm     92 % 0.3 in /  7.62 mm
04:55 0.6 °F /  -17.4 °C -0.6 °F /  -18.1 °C 1007.0 in /  34097 hPa Calm     92 % 0.8 in /  20.32 mm
05:05 0.6 °F /  -17.4 °C -0.6 °F /  -18.1 °C 1007.0 in /  34097 hPa Calm     92 % 0.5 in /  12.7 mm
05:10 0.6 °F /  -17.4 °C -0.6 °F /  -18.1 °C 1007.0 in /  34097 hPa Calm     92 % 0.5 in /  12.7 mm
05:15 0.6 °F /  -17.4 °C -0.6 °F /  -18.1 °C 1007.0 in /  34097 hPa Calm     92 % 0.5 in /  12.7 mm
05:20 0.6 °F /  -17.4 °C -0.6 °F /  -18.1 °C 1007.0 in /  34097 hPa Calm     92 % 0.5 in /  12.7 mm
05:30 0.6 °F /  -17.4 °C -0.4 °F /  -18 °C 1007.0 in /  34097 hPa Calm     93 % 0.5 in /  12.7 mm
05:35 0.6 °F /  -17.4 °C -0.4 °F /  -18 °C 1007.0 in /  34097 hPa Calm     93 % 0.5 in /  12.7 mm
05:40 0.6 °F /  -17.4 °C -0.4 °F /  -18 °C 1008.0 in /  34130.9 hPa Calm     93 % 0.5 in /  12.7 mm
05:45 0.6 °F /  -17.4 °C -0.4 °F /  -18 °C 1008.0 in /  34130.9 hPa Calm     93 % 0.5 in /  12.7 mm
05:56 0.5 °F /  -17.5 °C -0.5 °F /  -18.1 °C 1008.0 in /  34130.9 hPa Calm     93 % 0.3 in /  7.62 mm
06:01 0.5 °F /  -17.5 °C -0.5 °F /  -18.1 °C 1008.0 in /  34130.9 hPa Calm     93 % 0.3 in /  7.62 mm
06:06 0.5 °F /  -17.5 °C -0.5 °F /  -18.1 °C 1008.0 in /  34130.9 hPa Calm     93 % 0.3 in /  7.62 mm
06:11 0.5 °F /  -17.5 °C -0.5 °F /  -18.1 °C 1007.0 in /  34097 hPa Calm     93 % 0.3 in /  7.62 mm
06:16 0.5 °F /  -17.5 °C -0.5 °F /  -18.1 °C 1007.0 in /  34097 hPa Calm     93 % 0.3 in /  7.62 mm
06:21 0.5 °F /  -17.5 °C -0.5 °F /  -18.1 °C 1007.0 in /  34097 hPa Calm     93 % 0.3 in /  7.62 mm
06:26 0.5 °F /  -17.5 °C -0.5 °F /  -18.1 °C 1007.0 in /  34097 hPa Calm     93 % 0.3 in /  7.62 mm
06:31 0.5 °F /  -17.5 °C -0.5 °F /  -18.1 °C 1007.0 in /  34097 hPa Calm     93 % 0.3 in /  7.62 mm
06:36 0.5 °F /  -17.5 °C -0.5 °F /  -18.1 °C 1007.0 in /  34097 hPa Calm     93 % 0.3 in /  7.62 mm
06:41 0.5 °F /  -17.5 °C -0.5 °F /  -18.1 °C 1008.0 in /  34130.9 hPa Calm     93 % 0.3 in /  7.62 mm
06:46 0.5 °F /  -17.5 °C -0.5 °F /  -18.1 °C 1008.0 in /  34130.9 hPa Calm     93 % 0.3 in /  7.62 mm
06:51 0.5 °F /  -17.5 °C -0.5 °F /  -18.1 °C 1008.0 in /  34130.9 hPa Calm     93 % 0.3 in /  7.62 mm
06:56 0.5 °F /  -17.5 °C -0.5 °F /  -18.1 °C 1008.0 in /  34130.9 hPa Calm     93 % 0.3 in /  7.62 mm
07:06 0.5 °F /  -17.5 °C -0.3 °F /  -17.9 °C 1008.0 in /  34130.9 hPa Calm     94 % 0.3 in /  7.62 mm
07:16 0.5 °F /  -17.5 °C -0.3 °F /  -17.9 °C 1008.0 in /  34130.9 hPa Calm     94 % 0.0 in /  0 mm
07:21 0.5 °F /  -17.5 °C -0.3 °F /  -17.9 °C 1008.0 in /  34130.9 hPa Calm     94 % 0.0 in /  0 mm
07:26 0.5 °F /  -17.5 °C -0.3 °F /  -17.9 °C 1008.0 in /  34130.9 hPa Calm     94 % 0.0 in /  0 mm
07:36 0.5 °F /  -17.5 °C -0.3 °F /  -17.9 °C 1008.0 in /  34130.9 hPa Calm     94 % 0.3 in /  7.62 mm
07:41 0.5 °F /  -17.5 °C -0.3 °F /  -17.9 °C 1008.0 in /  34130.9 hPa Calm     94 % 0.3 in /  7.62 mm
07:46 0.5 °F /  -17.5 °C -0.3 °F /  -17.9 °C 1008.0 in /  34130.9 hPa Calm     94 % 0.3 in /  7.62 mm
07:51 0.6 °F /  -17.4 °C -0.3 °F /  -17.9 °C 1008.0 in /  34130.9 hPa Calm     94 % 0.3 in /  7.62 mm
08:01 0.6 °F /  -17.4 °C -0.3 °F /  -17.9 °C 1008.0 in /  34130.9 hPa Calm     94 % 0.3 in /  7.62 mm
08:06 0.6 °F /  -17.4 °C -0.3 °F /  -17.9 °C 1008.0 in /  34130.9 hPa Calm     94 % 0.3 in /  7.62 mm
08:11 0.6 °F /  -17.4 °C -0.3 °F /  -17.9 °C 1008.0 in /  34130.9 hPa Calm     94 % 0.3 in /  7.62 mm
08:16 0.6 °F /  -17.4 °C -0.3 °F /  -17.9 °C 1008.0 in /  34130.9 hPa Calm     94 % 0.3 in /  7.62 mm
08:21 0.6 °F /  -17.4 °C -0.3 °F /  -17.9 °C 1008.0 in /  34130.9 hPa Calm     94 % 0.3 in /  7.62 mm
08:26 0.6 °F /  -17.4 °C -0.3 °F /  -17.9 °C 1008.0 in /  34130.9 hPa Calm     94 % 0.0 in /  0 mm
08:31 0.6 °F /  -17.4 °C -0.3 °F /  -17.9 °C 1008.0 in /  34130.9 hPa Calm     94 % 0.0 in /  0 mm
08:36 0.6 °F /  -17.4 °C -0.3 °F /  -17.9 °C 1008.0 in /  34130.9 hPa Calm     94 % 0.0 in /  0 mm
08:46 0.7 °F /  -17.4 °C -0.2 °F /  -17.9 °C 1008.0 in /  34130.9 hPa Calm     94 % 0.3 in /  7.62 mm
08:56 0.7 °F /  -17.4 °C 0.0 °F /  -17.8 °C 1008.0 in /  34130.9 hPa Calm     95 % 0.3 in /  7.62 mm
09:06 0.7 °F /  -17.4 °C 0.0 °F /  -17.8 °C 1008.0 in /  34130.9 hPa Calm     95 % 0.3 in /  7.62 mm
09:11 0.7 °F /  -17.4 °C 0.0 °F /  -17.8 °C 1008.0 in /  34130.9 hPa Calm     95 % 0.3 in /  7.62 mm
09:26 0.8 °F /  -17.3 °C 0.1 °F /  -17.7 °C 1008.0 in /  34130.9 hPa Calm     95 % 0.3 in /  7.62 mm
09:36 0.8 °F /  -17.3 °C 0.1 °F /  -17.7 °C 1008.0 in /  34130.9 hPa Calm     95 % 0.3 in /  7.62 mm
09:41 0.9 °F /  -17.3 °C 0.2 °F /  -17.7 °C 1008.0 in /  34130.9 hPa Calm     95 % 0.3 in /  7.62 mm
09:46 0.9 °F /  -17.3 °C 0.2 °F /  -17.7 °C 1008.0 in /  34130.9 hPa Calm     95 % 0.0 in /  0 mm
09:56 0.9 °F /  -17.3 °C 0.2 °F /  -17.7 °C 1009.0 in /  34164.7 hPa Calm     95 % 0.0 in /  0 mm
10:01 1.0 °F /  -17.2 °C 0.3 °F /  -17.6 °C 1009.0 in /  34164.7 hPa Calm     95 % 0.0 in /  0 mm
10:11 1.0 °F /  -17.2 °C 0.3 °F /  -17.6 °C 1009.0 in /  34164.7 hPa Calm     95 % 0.0 in /  0 mm
10:21 1.0 °F /  -17.2 °C 0.3 °F /  -17.6 °C 1009.0 in /  34164.7 hPa Calm     95 % 0.0 in /  0 mm
10:26 1.1 °F /  -17.2 °C 0.4 °F /  -17.6 °C 1009.0 in /  34164.7 hPa Calm     95 % 0.0 in /  0 mm
10:31 1.1 °F /  -17.2 °C 0.4 °F /  -17.6 °C 1009.0 in /  34164.7 hPa Calm     95 % 0.0 in /  0 mm
10:36 1.1 °F /  -17.2 °C 0.4 °F /  -17.6 °C 1009.0 in /  34164.7 hPa Calm     95 % 0.0 in /  0 mm
10:41 1.1 °F /  -17.2 °C 0.4 °F /  -17.6 °C 1009.0 in /  34164.7 hPa Calm     95 % 0.0 in /  0 mm
10:51 1.1 °F /  -17.2 °C 0.4 °F /  -17.6 °C 1009.0 in /  34164.7 hPa Calm     95 % 0.0 in /  0 mm
11:06 1.3 °F /  -17.1 °C 0.6 °F /  -17.4 °C 1008.0 in /  34130.9 hPa Calm     95 % 0.0 in /  0 mm
11:11 1.4 °F /  -17 °C 0.7 °F /  -17.4 °C 1008.0 in /  34130.9 hPa East 0.3 mph /  0.5 km/h 4.3 mph /  6.9 km/h 95 % 0.0 in /  0 mm
11:22 1.4 °F /  -17 °C 0.7 °F /  -17.4 °C 1008.0 in /  34130.9 hPa East 1.3 mph /  2.1 km/h 4.0 mph /  6.4 km/h 95 % 0.0 in /  0 mm
11:27 1.4 °F /  -17 °C 0.7 °F /  -17.4 °C 1008.0 in /  34130.9 hPa East 1.3 mph /  2.1 km/h 4.3 mph /  6.9 km/h 95 % 0.0 in /  0 mm
11:32 1.5 °F /  -16.9 °C 0.8 °F /  -17.3 °C 1008.0 in /  34130.9 hPa East 1.1 mph /  1.8 km/h 4.3 mph /  6.9 km/h 95 % 0.0 in /  0 mm
11:37 1.5 °F /  -16.9 °C 0.8 °F /  -17.3 °C 1008.0 in /  34130.9 hPa East 2.3 mph /  3.7 km/h 4.7 mph /  7.6 km/h 95 % 0.0 in /  0 mm
11:42 1.6 °F /  -16.9 °C 0.9 °F /  -17.3 °C 1008.0 in /  34130.9 hPa East 2.3 mph /  3.7 km/h 4.7 mph /  7.6 km/h 95 % 0.0 in /  0 mm
11:47 1.6 °F /  -16.9 °C 0.9 °F /  -17.3 °C 1008.0 in /  34130.9 hPa East 2.1 mph /  3.4 km/h 4.0 mph /  6.4 km/h 95 % 0.0 in /  0 mm
11:52 1.6 °F /  -16.9 °C 0.9 °F /  -17.3 °C 1008.0 in /  34130.9 hPa ESE 1.9 mph /  3.1 km/h 4.0 mph /  6.4 km/h 95 % 0.0 in /  0 mm
11:57 1.7 °F /  -16.8 °C 1.0 °F /  -17.2 °C 1009.0 in /  34164.7 hPa SSW 0.8 mph /  1.3 km/h 3.5 mph /  5.6 km/h 95 % 0.0 in /  0 mm
12:02 1.7 °F /  -16.8 °C 1.0 °F /  -17.2 °C 1009.0 in /  34164.7 hPa SSW 0.5 mph /  0.8 km/h 4.3 mph /  6.9 km/h 95 % 0.3 in /  7.62 mm
12:07 1.8 °F /  -16.8 °C 1.1 °F /  -17.2 °C 1009.0 in /  34164.7 hPa SSW 1.8 mph /  2.9 km/h 4.7 mph /  7.6 km/h 95 % 0.3 in /  7.62 mm
12:12 1.8 °F /  -16.8 °C 1.1 °F /  -17.2 °C 1009.0 in /  34164.7 hPa SSW 1.8 mph /  2.9 km/h 4.7 mph /  7.6 km/h 95 % 0.3 in /  7.62 mm
12:17 1.9 °F /  -16.7 °C 1.2 °F /  -17.1 °C 1009.0 in /  34164.7 hPa SW 1.0 mph /  1.6 km/h 4.3 mph /  6.9 km/h 95 % 0.3 in /  7.62 mm
12:27 2.0 °F /  -16.7 °C 1.1 °F /  -17.2 °C 1010.0 in /  34198.6 hPa SW 1.1 mph /  1.8 km/h 4.7 mph /  7.6 km/h 94 % 0.3 in /  7.62 mm
12:42 2.1 °F /  -16.6 °C 1.2 °F /  -17.1 °C 1008.0 in /  34130.9 hPa WSW 0.5 mph /  0.8 km/h 3.2 mph /  5.1 km/h 94 % 0.5 in /  12.7 mm
12:47 2.1 °F /  -16.6 °C 1.2 °F /  -17.1 °C 1008.0 in /  34130.9 hPa SW 1.1 mph /  1.8 km/h 4.0 mph /  6.4 km/h 94 % 0.5 in /  12.7 mm
12:52 2.1 °F /  -16.6 °C 1.2 °F /  -17.1 °C 1008.0 in /  34130.9 hPa SSW 1.4 mph /  2.3 km/h 4.0 mph /  6.4 km/h 94 % 0.8 in /  20.32 mm
12:57 2.1 °F /  -16.6 °C 1.2 °F /  -17.1 °C 1009.0 in /  34164.7 hPa SSW 1.8 mph /  2.9 km/h 4.3 mph /  6.9 km/h 94 % 0.8 in /  20.32 mm
13:07 2.2 °F /  -16.6 °C 1.3 °F /  -17.1 °C 1009.0 in /  34164.7 hPa SE 0.8 mph /  1.3 km/h 3.2 mph /  5.1 km/h 94 % 0.8 in /  20.32 mm
13:17 2.2 °F /  -16.6 °C 1.3 °F /  -17.1 °C 1008.0 in /  34130.9 hPa WSW 0.2 mph /  0.3 km/h 1.8 mph /  2.9 km/h 94 % 0.5 in /  12.7 mm
13:22 2.1 °F /  -16.6 °C 1.2 °F /  -17.1 °C 1008.0 in /  34130.9 hPa Calm   1.8 mph /  2.9 km/h 94 % 0.5 in /  12.7 mm
13:32 2.2 °F /  -16.6 °C 1.3 °F /  -17.1 °C 1009.0 in /  34164.7 hPa Calm     94 % 0.8 in /  20.32 mm
13:37 2.2 °F /  -16.6 °C 1.2 °F /  -17.1 °C 1009.0 in /  34164.7 hPa Calm   2.6 mph /  4.2 km/h 93 % 0.5 in /  12.7 mm
13:47 2.1 °F /  -16.6 °C 1.1 °F /  -17.2 °C 1009.0 in /  34164.7 hPa SSW 0.8 mph /  1.3 km/h 3.2 mph /  5.1 km/h 93 % 1.0 in /  25.4 mm
13:52 2.0 °F /  -16.7 °C 1.0 °F /  -17.2 °C 1009.0 in /  34164.7 hPa SSW 1.4 mph /  2.3 km/h 3.5 mph /  5.6 km/h 93 % 0.8 in /  20.32 mm
13:57 2.0 °F /  -16.7 °C 1.0 °F /  -17.2 °C 1009.0 in /  34164.7 hPa SSW 1.3 mph /  2.1 km/h 3.5 mph /  5.6 km/h 93 % 0.8 in /  20.32 mm
14:02 2.0 °F /  -16.7 °C 1.0 °F /  -17.2 °C 1009.0 in /  34164.7 hPa SSW 1.6 mph /  2.6 km/h 3.2 mph /  5.1 km/h 93 % 0.8 in /  20.32 mm
14:07 1.9 °F /  -16.7 °C 0.9 °F /  -17.3 °C 1009.0 in /  34164.7 hPa SSW 1.8 mph /  2.9 km/h 4.0 mph /  6.4 km/h 93 % 0.8 in /  20.32 mm
14:17 1.9 °F /  -16.7 °C 0.9 °F /  -17.3 °C 1009.0 in /  34164.7 hPa SSW 0.3 mph /  0.5 km/h 2.6 mph /  4.2 km/h 93 % 1.0 in /  25.4 mm
14:22 1.9 °F /  -16.7 °C 0.9 °F /  -17.3 °C 1009.0 in /  34164.7 hPa SSW 1.6 mph /  2.6 km/h 4.7 mph /  7.6 km/h 93 % 1.0 in /  25.4 mm
14:27 1.9 °F /  -16.7 °C 0.9 °F /  -17.3 °C 1009.0 in /  34164.7 hPa SW 3.4 mph /  5.5 km/h 4.7 mph /  7.6 km/h 93 % 0.8 in /  20.32 mm
14:32 1.9 °F /  -16.7 °C 0.9 °F /  -17.3 °C 1009.0 in /  34164.7 hPa SW 2.9 mph /  4.7 km/h 4.7 mph /  7.6 km/h 93 % 0.8 in /  20.32 mm
14:47 1.6 °F /  -16.9 °C 0.4 °F /  -17.6 °C 1009.0 in /  34164.7 hPa SSW 1.8 mph /  2.9 km/h 4.0 mph /  6.4 km/h 92 % 0.5 in /  12.7 mm
14:52 1.6 °F /  -16.9 °C 0.4 °F /  -17.6 °C 1009.0 in /  34164.7 hPa South 1.0 mph /  1.6 km/h 4.0 mph /  6.4 km/h 92 % 0.5 in /  12.7 mm
14:57 1.6 °F /  -16.9 °C 0.4 °F /  -17.6 °C 1008.0 in /  34130.9 hPa Calm     92 % 0.5 in /  12.7 mm
15:02 1.3 °F /  -17.1 °C 0.2 °F /  -17.7 °C 1008.0 in /  34130.9 hPa SSW 0.5 mph /  0.8 km/h 3.5 mph /  5.6 km/h 92 % 0.5 in /  12.7 mm
15:07 1.2 °F /  -17.1 °C 0.1 °F /  -17.7 °C 1008.0 in /  34130.9 hPa SW 0.6 mph /  1 km/h 4.0 mph /  6.4 km/h 92 % 0.5 in /  12.7 mm
15:12 1.1 °F /  -17.2 °C -0.1 °F /  -17.8 °C 1009.0 in /  34164.7 hPa West 0.6 mph /  1 km/h 4.7 mph /  7.6 km/h 92 % 0.3 in /  7.62 mm
15:17 1.0 °F /  -17.2 °C -0.2 °F /  -17.9 °C 1009.0 in /  34164.7 hPa West 1.1 mph /  1.8 km/h 6.4 mph /  10.3 km/h 92 % 0.3 in /  7.62 mm
15:22 0.9 °F /  -17.3 °C -0.3 °F /  -17.9 °C 1009.0 in /  34164.7 hPa NNW 2.6 mph /  4.2 km/h 6.4 mph /  10.3 km/h 92 % 0.3 in /  7.62 mm
15:27 0.8 °F /  -17.3 °C -0.3 °F /  -17.9 °C 1009.0 in /  34164.7 hPa NW 3.2 mph /  5.1 km/h 6.4 mph /  10.3 km/h 92 % 0.3 in /  7.62 mm
15:32 0.7 °F /  -17.4 °C -0.4 °F /  -18 °C 1009.0 in /  34164.7 hPa WNW 1.9 mph /  3.1 km/h 5.0 mph /  8 km/h 92 % 0.3 in /  7.62 mm
15:52 0.6 °F /  -17.4 °C -0.7 °F /  -18.2 °C 1010.0 in /  34198.6 hPa West 1.8 mph /  2.9 km/h 4.7 mph /  7.6 km/h 91 % 0.3 in /  7.62 mm
15:57 0.3 °F /  -17.6 °C -1.0 °F /  -18.3 °C 1010.0 in /  34198.6 hPa West 2.6 mph /  4.2 km/h 4.7 mph /  7.6 km/h 91 % 0.3 in /  7.62 mm
16:02 0.3 °F /  -17.6 °C -1.0 °F /  -18.3 °C 1010.0 in /  34198.6 hPa WNW 2.6 mph /  4.2 km/h 5.0 mph /  8 km/h 91 % 0.3 in /  7.62 mm
16:07 0.1 °F /  -17.7 °C -1.3 °F /  -18.5 °C 1010.0 in /  34198.6 hPa WNW 2.9 mph /  4.7 km/h 5.0 mph /  8 km/h 90 % 0.3 in /  7.62 mm
16:12 0.1 °F /  -17.7 °C -1.3 °F /  -18.5 °C 1011.1 in /  34235.8 hPa WNW 2.9 mph /  4.7 km/h 4.7 mph /  7.6 km/h 90 % 0.3 in /  7.62 mm
16:23 0.0 °F /  -17.8 °C -1.3 °F /  -18.5 °C 1011.1 in /  34235.8 hPa Calm     0 % 0.3 in /  7.62 mm
16:33 -0.2 °F /  -17.9 °C -1.7 °F /  -18.7 °C 1011.1 in /  34235.8 hPa NW 2.6 mph /  4.2 km/h 4.7 mph /  7.6 km/h 90 % 0.0 in /  0 mm
16:38 -0.2 °F /  -17.9 °C -1.7 °F /  -18.7 °C 1011.1 in /  34235.8 hPa NW 2.6 mph /  4.2 km/h 4.7 mph /  7.6 km/h 90 % 0.0 in /  0 mm
16:43 -0.2 °F /  -17.9 °C -1.7 °F /  -18.7 °C 1011.1 in /  34235.8 hPa NNW 2.7 mph /  4.3 km/h 3.2 mph /  5.1 km/h 90 % 0.0 in /  0 mm
16:48 -0.2 °F /  -17.9 °C -1.7 °F /  -18.7 °C 1011.1 in /  34235.8 hPa NNW 1.8 mph /  2.9 km/h 3.2 mph /  5.1 km/h 90 % 0.0 in /  0 mm
16:53 -0.2 °F /  -17.9 °C -1.7 °F /  -18.7 °C 1011.1 in /  34235.8 hPa WSW 1.9 mph /  3.1 km/h 3.2 mph /  5.1 km/h 90 % 0.0 in /  0 mm
16:58 -0.2 °F /  -17.9 °C -1.7 °F /  -18.7 °C 1010.0 in /  34198.6 hPa WSW 1.3 mph /  2.1 km/h 3.2 mph /  5.1 km/h 90 % 0.0 in /  0 mm
17:03 -0.2 °F /  -17.9 °C -1.7 °F /  -18.7 °C 1010.0 in /  34198.6 hPa WSW 0.2 mph /  0.3 km/h 1.8 mph /  2.9 km/h 90 % 0.0 in /  0 mm
17:08 -0.6 °F /  -18.1 °C -2.1 °F /  -18.9 °C 1010.0 in /  34198.6 hPa Calm     90 % 0.0 in /  0 mm
17:18 -0.7 °F /  -18.2 °C -2.1 °F /  -18.9 °C 1011.1 in /  34235.8 hPa Calm     90 % 0.0 in /  0 mm
17:23 -0.8 °F /  -18.2 °C -2.2 °F /  -19 °C 1011.1 in /  34235.8 hPa WSW 0.2 mph /  0.3 km/h 1.8 mph /  2.9 km/h 90 % 0.0 in /  0 mm
17:28 -0.9 °F /  -18.3 °C -2.3 °F /  -19.1 °C 1011.1 in /  34235.8 hPa WSW 0.5 mph /  0.8 km/h 3.5 mph /  5.6 km/h 90 % 0.0 in /  0 mm
17:33 -0.9 °F /  -18.3 °C -2.3 °F /  -19.1 °C 1011.1 in /  34235.8 hPa West 1.0 mph /  1.6 km/h 4.0 mph /  6.4 km/h 90 % 0.0 in /  0 mm
17:38 -1.0 °F /  -18.3 °C -2.4 °F /  -19.1 °C 1011.1 in /  34235.8 hPa NW 0.6 mph /  1 km/h 4.0 mph /  6.4 km/h 90 % 0.0 in /  0 mm
17:48 -1.1 °F /  -18.4 °C -2.6 °F /  -19.2 °C 1011.1 in /  34235.8 hPa WNW 1.6 mph /  2.6 km/h 2.1 mph /  3.4 km/h 90 % 0.0 in /  0 mm
17:53 -1.1 °F /  -18.4 °C -2.6 °F /  -19.2 °C 1011.1 in /  34235.8 hPa WNW 1.6 mph /  2.6 km/h 3.5 mph /  5.6 km/h 90 % 0.0 in /  0 mm
17:58 -1.1 °F /  -18.4 °C -2.6 °F /  -19.2 °C 1011.1 in /  34235.8 hPa WNW 1.8 mph /  2.9 km/h 4.0 mph /  6.4 km/h 90 % 0.0 in /  0 mm
18:03 -1.2 °F /  -18.4 °C -2.6 °F /  -19.2 °C 1011.1 in /  34235.8 hPa WNW 1.4 mph /  2.3 km/h 4.0 mph /  6.4 km/h 90 % 0.0 in /  0 mm
18:08 -1.2 °F /  -18.4 °C -2.6 °F /  -19.2 °C 1011.1 in /  34235.8 hPa NW 0.6 mph /  1 km/h 3.5 mph /  5.6 km/h 90 % 0.0 in /  0 mm
18:13 -1.2 °F /  -18.4 °C -2.6 °F /  -19.2 °C 1011.1 in /  34235.8 hPa Calm   3.5 mph /  5.6 km/h 90 % 0.0 in /  0 mm
18:18 -1.4 °F /  -18.6 °C -2.8 °F /  -19.3 °C 1011.1 in /  34235.8 hPa WNW 1.1 mph /  1.8 km/h 2.6 mph /  4.2 km/h 90 % 0.0 in /  0 mm
18:23 -1.5 °F /  -18.6 °C -2.9 °F /  -19.4 °C 1011.1 in /  34235.8 hPa WNW 0.8 mph /  1.3 km/h 2.6 mph /  4.2 km/h 90 % 0.0 in /  0 mm
18:33 -1.6 °F /  -18.7 °C -3.0 °F /  -19.4 °C 1012.1 in /  34269.7 hPa WSW 2.6 mph /  4.2 km/h 4.7 mph /  7.6 km/h 90 % 0.0 in /  0 mm
18:43 -1.5 °F /  -18.6 °C -2.9 °F /  -19.4 °C 1012.1 in /  34269.7 hPa SW 4.3 mph /  6.9 km/h 7.9 mph /  12.7 km/h 90 % 0.0 in /  0 mm
18:53 -1.6 °F /  -18.7 °C -3.0 °F /  -19.4 °C 1012.1 in /  34269.7 hPa WSW 2.1 mph /  3.4 km/h 4.3 mph /  6.9 km/h 90 % 0.0 in /  0 mm
18:58 -1.7 °F /  -18.7 °C -3.1 °F /  -19.5 °C 1012.1 in /  34269.7 hPa SSW 1.6 mph /  2.6 km/h 7.6 mph /  12.2 km/h 90 % 0.0 in /  0 mm
19:03 -1.9 °F /  -18.8 °C -3.3 °F /  -19.6 °C 1012.1 in /  34269.7 hPa SW 1.9 mph /  3.1 km/h 7.6 mph /  12.2 km/h 90 % 0.0 in /  0 mm
19:08 -2.0 °F /  -18.9 °C -3.3 °F /  -19.6 °C 1012.1 in /  34269.7 hPa West 1.3 mph /  2.1 km/h 5.8 mph /  9.3 km/h 91 % 0.0 in /  0 mm
19:13 -2.1 °F /  -18.9 °C -3.5 °F /  -19.7 °C 1012.1 in /  34269.7 hPa NNW 0.8 mph /  1.3 km/h 3.5 mph /  5.6 km/h 90 % 0.0 in /  0 mm
19:23 -2.3 °F /  -19.1 °C -3.7 °F /  -19.8 °C 1012.1 in /  34269.7 hPa Calm     90 % 0.0 in /  0 mm
19:28 -2.3 °F /  -19.1 °C -3.7 °F /  -19.8 °C 1012.1 in /  34269.7 hPa Calm     90 % 0.0 in /  0 mm
19:33 -2.5 °F /  -19.2 °C -3.9 °F /  -19.9 °C 0.0 in /  0 hPa Calm     90 % 0.0 in /  0 mm
19:39 -2.6 °F /  -19.2 °C -4.0 °F /  -20 °C 0.0 in /  0 hPa WNW 0.6 mph /  1 km/h 4.0 mph /  6.4 km/h 90 % 0.0 in /  0 mm
19:44 -2.8 °F /  -19.3 °C -4.2 °F /  -20.1 °C 1013.1 in /  34303.6 hPa NNW 1.0 mph /  1.6 km/h 4.0 mph /  6.4 km/h 90 % 0.0 in /  0 mm
19:59 -3.3 °F /  -19.6 °C -4.7 °F /  -20.4 °C 1013.1 in /  34303.6 hPa Calm     90 % 0.0 in /  0 mm
20:04 -3.4 °F /  -19.7 °C -4.8 °F /  -20.4 °C 1013.1 in /  34303.6 hPa SSW 0.2 mph /  0.3 km/h 5.0 mph /  8 km/h 90 % 0.0 in /  0 mm
20:09 -3.5 °F /  -19.7 °C -4.9 °F /  -20.5 °C 1013.1 in /  34303.6 hPa SSW 1.6 mph /  2.6 km/h 5.0 mph /  8 km/h 90 % 0.0 in /  0 mm
20:19 -3.8 °F /  -19.9 °C -5.2 °F /  -20.7 °C 1013.1 in /  34303.6 hPa SSW 0.6 mph /  1 km/h 2.6 mph /  4.2 km/h 90 % 0.0 in /  0 mm
20:24 -3.8 °F /  -19.9 °C -5.2 °F /  -20.7 °C 1013.1 in /  34303.6 hPa SSW 1.0 mph /  1.6 km/h 2.6 mph /  4.2 km/h 90 % 0.0 in /  0 mm
20:29 -3.9 °F /  -19.9 °C -5.3 °F /  -20.7 °C 1013.1 in /  34303.6 hPa SSW 0.3 mph /  0.5 km/h 3.5 mph /  5.6 km/h 90 % 0.0 in /  0 mm
20:34 -4.0 °F /  -20 °C -5.4 °F /  -20.8 °C 1013.1 in /  34303.6 hPa SW 1.0 mph /  1.6 km/h 3.5 mph /  5.6 km/h 90 % 0.0 in /  0 mm
20:39 -4.1 °F /  -20.1 °C -5.5 °F /  -20.8 °C 1013.1 in /  34303.6 hPa SW 1.0 mph /  1.6 km/h 4.0 mph /  6.4 km/h 90 % 0.3 in /  7.62 mm
20:54 -4.4 °F /  -20.2 °C -5.8 °F /  -21 °C 1013.1 in /  34303.6 hPa WSW 0.8 mph /  1.3 km/h 4.0 mph /  6.4 km/h 90 % 0.3 in /  7.62 mm
20:59 -4.5 °F /  -20.3 °C -5.9 °F /  -21.1 °C 1013.1 in /  34303.6 hPa West 0.8 mph /  1.3 km/h 4.0 mph /  6.4 km/h 90 % 0.3 in /  7.62 mm
21:04 -4.7 °F /  -20.4 °C -6.1 °F /  -21.2 °C 1013.1 in /  34303.6 hPa West 0.5 mph /  0.8 km/h 2.1 mph /  3.4 km/h 90 % 0.3 in /  7.62 mm
21:19 -4.9 °F /  -20.5 °C -6.3 °F /  -21.3 °C 1013.1 in /  34303.6 hPa SW 0.5 mph /  0.8 km/h 2.1 mph /  3.4 km/h 90 % 0.3 in /  7.62 mm
21:24 -4.9 °F /  -20.5 °C -6.3 °F /  -21.3 °C 1013.1 in /  34303.6 hPa SW 1.3 mph /  2.1 km/h 3.2 mph /  5.1 km/h 90 % 0.3 in /  7.62 mm
21:34 -5.1 °F /  -20.6 °C -6.5 °F /  -21.4 °C 1013.1 in /  34303.6 hPa Calm     90 % 0.3 in /  7.62 mm
21:39 -5.2 °F /  -20.7 °C -6.6 °F /  -21.4 °C 1013.1 in /  34303.6 hPa Calm     90 % 0.0 in /  0 mm
21:44 -5.2 °F /  -20.7 °C -6.6 °F /  -21.4 °C 1013.1 in /  34303.6 hPa West 0.6 mph /  1 km/h 2.6 mph /  4.2 km/h 90 % 0.0 in /  0 mm
21:49 -5.3 °F /  -20.7 °C -6.7 °F /  -21.5 °C 1013.1 in /  34303.6 hPa West 0.8 mph /  1.3 km/h 2.6 mph /  4.2 km/h 90 % 0.0 in /  0 mm
21:54 -5.4 °F /  -20.8 °C -6.8 °F /  -21.6 °C 1013.1 in /  34303.6 hPa Calm   2.1 mph /  3.4 km/h 90 % 0.0 in /  0 mm
21:59 -5.5 °F /  -20.8 °C -6.9 °F /  -21.6 °C 1013.1 in /  34303.6 hPa SSW 0.6 mph /  1 km/h 3.2 mph /  5.1 km/h 90 % 0.0 in /  0 mm
22:04 -5.6 °F /  -20.9 °C -7.0 °F /  -21.7 °C 1013.1 in /  34303.6 hPa SSW 0.8 mph /  1.3 km/h 3.2 mph /  5.1 km/h 90 % 0.0 in /  0 mm
22:09 -5.7 °F /  -20.9 °C -7.1 °F /  -21.7 °C 1013.1 in /  34303.6 hPa SSW 0.2 mph /  0.3 km/h 2.1 mph /  3.4 km/h 90 % 0.0 in /  0 mm
22:14 -5.7 °F /  -20.9 °C -7.1 °F /  -21.7 °C 1013.1 in /  34303.6 hPa WSW 0.6 mph /  1 km/h 3.5 mph /  5.6 km/h 90 % 0.0 in /  0 mm
22:19 -5.8 °F /  -21 °C -7.2 °F /  -21.8 °C 1013.1 in /  34303.6 hPa WSW 0.6 mph /  1 km/h 3.5 mph /  5.6 km/h 90 % 0.0 in /  0 mm
22:24 -5.9 °F /  -21.1 °C -7.3 °F /  -21.8 °C 1013.1 in /  34303.6 hPa NW 1.1 mph /  1.8 km/h 4.0 mph /  6.4 km/h 90 % 0.0 in /  0 mm
22:29 -6.0 °F /  -21.1 °C -7.4 °F /  -21.9 °C 1013.1 in /  34303.6 hPa WSW 2.6 mph /  4.2 km/h 4.3 mph /  6.9 km/h 90 % 0.0 in /  0 mm
22:34 -6.0 °F /  -21.1 °C -7.4 °F /  -21.9 °C 1013.1 in /  34303.6 hPa SW 2.6 mph /  4.2 km/h 4.7 mph /  7.6 km/h 90 % 0.0 in /  0 mm
22:39 -6.1 °F /  -21.2 °C -7.5 °F /  -21.9 °C 1013.1 in /  34303.6 hPa SW 1.6 mph /  2.6 km/h 4.7 mph /  7.6 km/h 90 % 0.0 in /  0 mm
22:44 -6.1 °F /  -21.2 °C -7.5 °F /  -21.9 °C 1013.1 in /  34303.6 hPa NNW 1.3 mph /  2.1 km/h 3.2 mph /  5.1 km/h 90 % 0.0 in /  0 mm
22:49 -6.0 °F /  -21.1 °C -7.4 °F /  -21.9 °C 1013.1 in /  34303.6 hPa NNW 1.1 mph /  1.8 km/h 3.2 mph /  5.1 km/h 90 % 0.0 in /  0 mm
22:54 -6.0 °F /  -21.1 °C -7.2 °F /  -21.8 °C 1013.1 in /  34303.6 hPa WSW 0.8 mph /  1.3 km/h 3.2 mph /  5.1 km/h 91 % 0.0 in /  0 mm
22:59 -5.9 °F /  -21.1 °C -7.3 °F /  -21.8 °C 0.0 in /  0 hPa SSE 2.4 mph /  3.9 km/h 3.5 mph /  5.6 km/h 90 % 0.0 in /  0 mm
23:04 -5.8 °F /  -21 °C -7.2 °F /  -21.8 °C 1013.1 in /  34303.6 hPa South 1.4 mph /  2.3 km/h 3.5 mph /  5.6 km/h 90 % 0.0 in /  0 mm
23:09 0.0 °F /  -17.8 °C -7.2 °F /  -21.8 °C 0.0 in /  0 hPa Calm     0 % 0.0 in /  0 mm
23:14 -5.8 °F /  -21 °C -7.2 °F /  -21.8 °C 1014.1 in /  34337.4 hPa SW 4.3 mph /  6.9 km/h 5.5 mph /  8.9 km/h 90 % 0.0 in /  0 mm
23:19 -5.8 °F /  -21 °C -7.2 °F /  -21.8 °C 1014.1 in /  34337.4 hPa SW 2.9 mph /  4.7 km/h 5.5 mph /  8.9 km/h 90 % 0.0 in /  0 mm
23:29 -5.8 °F /  -21 °C -7.2 °F /  -21.8 °C 1014.1 in /  34337.4 hPa Calm     90 % 0.0 in /  0 mm
23:34 -5.9 °F /  -21.1 °C -7.3 °F /  -21.8 °C 1014.1 in /  34337.4 hPa SSE 0.6 mph /  1 km/h 4.3 mph /  6.9 km/h 90 % 0.0 in /  0 mm
23:39 -6.0 °F /  -21.1 °C -7.2 °F /  -21.8 °C 1014.1 in /  34337.4 hPa South 1.6 mph /  2.6 km/h 4.3 mph /  6.9 km/h 91 % 0.0 in /  0 mm
23:44 -6.1 °F /  -21.2 °C -7.3 °F /  -21.8 °C 1015.1 in /  34371.3 hPa South 1.0 mph /  1.6 km/h 3.5 mph /  5.6 km/h 91 % 0.0 in /  0 mm
23:49 -6.2 °F /  -21.2 °C -7.4 °F /  -21.9 °C 1015.1 in /  34371.3 hPa Calm     91 % 0.0 in /  0 mm
Vremenska postaja Senovo
Podatki zbrani iz Weather Underground - 2.5 mb

Script developed by  Jim McMurry - jmcmurry@mwt.net Adapted for the template by  Wim van der Kuil - Leuven-Template.eu

Vremenski podatki so objavljeni na:

European Weather Network

WeatherCloud

Weather Underground

AWEKAS

HAMweather, WeatherForYou, PWS Weather

MapView

Geostik

Slovenia weather network

Oprema, ki se uporablja:

Vremenski program
Cumulus

Vremenski server
Asus

Cumulus

Asus